sensor_id;sensor_type;location;lat;lon;timestamp;P1;durP1;ratioP1;P2;durP2;ratioP2
65198;SDS011;52170;45.018;37.910;2022-10-04T05:38:18;2.88;;;1.30;;
65198;SDS011;52170;45.018;37.910;2022-10-04T05:41:06;4.68;;;1.30;;
65198;SDS011;52170;45.018;37.910;2022-10-04T05:43:45;4.93;;;1.15;;
65198;SDS011;52170;45.018;37.910;2022-10-04T05:46:25;2.00;;;0.98;;
65198;SDS011;52170;45.018;37.910;2022-10-04T06:25:35;3.15;;;1.80;;
65198;SDS011;52170;45.018;37.910;2022-10-04T06:28:17;2.88;;;1.40;;
65198;SDS011;52170;45.018;37.910;2022-10-04T06:47:41;3.03;;;1.15;;
65198;SDS011;52170;45.018;37.910;2022-10-04T06:50:41;1.48;;;0.90;;
65198;SDS011;52170;45.018;37.910;2022-10-04T06:56:23;1.85;;;1.02;;
65198;SDS011;52170;45.018;37.910;2022-10-04T07:02:12;5.72;;;0.80;;
65198;SDS011;52170;45.018;37.910;2022-10-04T07:04:45;4.32;;;0.68;;
65198;SDS011;52170;45.018;37.910;2022-10-04T07:10:16;2.60;;;0.55;;
65198;SDS011;52170;45.018;37.910;2022-10-04T07:15:35;1.65;;;0.93;;
65198;SDS011;52170;45.018;37.910;2022-10-04T07:18:12;1.58;;;0.60;;
65198;SDS011;52170;45.018;37.910;2022-10-04T07:20:40;0.82;;;0.70;;
65198;SDS011;52170;45.018;37.910;2022-10-04T07:23:26;1.27;;;0.60;;
65198;SDS011;52170;45.018;37.910;2022-10-04T07:25:57;1.58;;;0.70;;
65198;SDS011;52170;45.018;37.910;2022-10-04T07:28:33;2.50;;;0.80;;
65198;SDS011;52170;45.018;37.910;2022-10-04T07:31:30;4.45;;;0.90;;
65198;SDS011;52170;45.018;37.910;2022-10-04T07:34:02;3.47;;;1.10;;
65198;SDS011;52170;45.018;37.910;2022-10-04T07:39:39;6.85;;;1.00;;
65198;SDS011;52170;45.018;37.910;2022-10-04T07:42:11;3.77;;;1.00;;
65198;SDS011;52170;45.018;37.910;2022-10-04T07:44:46;2.58;;;0.95;;
65198;SDS011;52170;45.018;37.910;2022-10-04T07:47:24;1.80;;;0.80;;
65198;SDS011;52170;45.018;37.910;2022-10-04T07:49:55;5.78;;;0.73;;
65198;SDS011;52170;45.018;37.910;2022-10-04T07:57:49;1.00;;;0.80;;
65198;SDS011;52170;45.018;37.910;2022-10-04T08:00:47;1.20;;;0.52;;
65198;SDS011;52170;45.018;37.910;2022-10-04T08:05:51;1.67;;;0.45;;
65198;SDS011;52170;45.018;37.910;2022-10-04T08:08:44;0.63;;;0.40;;
65198;SDS011;52170;45.018;37.910;2022-10-04T08:11:37;1.30;;;0.70;;
65198;SDS011;52170;45.018;37.910;2022-10-04T08:30:41;1.05;;;0.60;;
65198;SDS011;52170;45.018;37.910;2022-10-04T08:38:55;2.05;;;0.40;;
65198;SDS011;52170;45.018;37.910;2022-10-04T09:01:56;1.63;;;0.70;;
65198;SDS011;52170;45.018;37.910;2022-10-04T09:26:19;1.63;;;0.60;;
65198;SDS011;52170;45.018;37.910;2022-10-04T09:29:08;1.55;;;0.50;;
65198;SDS011;52170;45.018;37.910;2022-10-04T09:32:06;7.72;;;0.60;;
65198;SDS011;52170;45.018;37.910;2022-10-04T09:39:59;2.00;;;0.80;;
65198;SDS011;52170;45.018;37.910;2022-10-04T09:45:36;2.72;;;0.60;;
65198;SDS011;52170;45.018;37.910;2022-10-04T09:53:31;1.83;;;0.85;;
65198;SDS011;52170;45.018;37.910;2022-10-04T09:58:49;2.05;;;0.57;;
65198;SDS011;52170;45.018;37.910;2022-10-04T10:13:38;1.02;;;0.60;;
65198;SDS011;52170;45.018;37.910;2022-10-04T10:24:55;1.33;;;0.80;;
65198;SDS011;52170;45.018;37.910;2022-10-04T10:33:33;1.20;;;0.47;;
65198;SDS011;52170;45.018;37.910;2022-10-04T10:36:32;3.40;;;0.35;;
65198;SDS011;52170;45.018;37.910;2022-10-04T13:24:25;3.63;;;0.93;;
65198;SDS011;52170;45.018;37.910;2022-10-04T13:27:25;1.50;;;0.77;;
65198;SDS011;52170;45.018;37.910;2022-10-04T13:30:21;12.52;;;1.88;;
65198;SDS011;52170;45.018;37.910;2022-10-04T13:35:28;6.90;;;3.00;;
65198;SDS011;52170;45.018;37.910;2022-10-04T13:43:42;5.57;;;3.42;;
65198;SDS011;52170;45.018;37.910;2022-10-04T13:46:35;14.15;;;8.70;;
65198;SDS011;52170;45.018;37.910;2022-10-04T13:49:26;7.57;;;4.50;;
65198;SDS011;52170;45.018;37.910;2022-10-04T13:52:00;3.63;;;1.45;;
65198;SDS011;52170;45.018;37.910;2022-10-04T13:57:53;2.50;;;1.20;;
65198;SDS011;52170;45.018;37.910;2022-10-04T14:03:28;19.15;;;8.00;;
65198;SDS011;52170;45.018;37.910;2022-10-04T15:11:56;10.50;;;1.20;;
65198;SDS011;52170;45.018;37.910;2022-10-04T15:14:37;2.60;;;1.05;;
65198;SDS011;52170;45.018;37.910;2022-10-04T15:17:09;12.75;;;1.05;;
65198;SDS011;52170;45.018;37.910;2022-10-04T15:19:59;2.95;;;1.02;;
65198;SDS011;52170;45.018;37.910;2022-10-04T15:22:27;1.70;;;1.08;;
65198;SDS011;52170;45.018;37.910;2022-10-04T15:25:07;14.45;;;5.43;;
65198;SDS011;52170;45.018;37.910;2022-10-04T15:37:08;9.05;;;1.80;;
65198;SDS011;52170;45.018;37.910;2022-10-04T15:45:58;8.15;;;2.80;;
65198;SDS011;52170;45.018;37.910;2022-10-04T15:48:48;9.25;;;2.83;;
65198;SDS011;52170;45.018;37.910;2022-10-04T15:51:37;10.80;;;2.90;;
65198;SDS011;52170;45.018;37.910;2022-10-04T15:54:39;8.70;;;2.88;;
65198;SDS011;52170;45.018;37.910;2022-10-04T15:59:52;8.93;;;2.60;;
65198;SDS011;52170;45.018;37.910;2022-10-04T16:09:08;9.52;;;3.60;;
65198;SDS011;52170;45.018;37.910;2022-10-04T16:14:57;10.25;;;2.70;;
65198;SDS011;52170;45.018;37.910;2022-10-04T16:17:27;11.60;;;2.90;;
65198;SDS011;52170;45.018;37.910;2022-10-04T16:23:40;13.75;;;3.30;;
65198;SDS011;52170;45.018;37.910;2022-10-04T16:28:50;8.83;;;3.43;;
65198;SDS011;52170;45.018;37.910;2022-10-04T16:56:12;12.87;;;4.17;;
65198;SDS011;52170;45.018;37.910;2022-10-04T17:03:49;8.68;;;3.28;;
65198;SDS011;52170;45.018;37.910;2022-10-04T17:09:39;14.18;;;4.10;;
65198;SDS011;52170;45.018;37.910;2022-10-04T17:17:59;9.38;;;4.03;;
65198;SDS011;52170;45.018;37.910;2022-10-04T17:21:03;9.85;;;3.88;;
65198;SDS011;52170;45.018;37.910;2022-10-04T17:24:16;9.32;;;4.22;;
65198;SDS011;52170;45.018;37.910;2022-10-04T17:29:36;6.55;;;3.38;;
65198;SDS011;52170;45.018;37.910;2022-10-04T17:32:21;7.07;;;3.47;;
65198;SDS011;52170;45.018;37.910;2022-10-04T17:35:11;10.27;;;3.67;;
65198;SDS011;52170;45.018;37.910;2022-10-04T17:46:41;7.22;;;3.38;;
65198;SDS011;52170;45.018;37.910;2022-10-04T17:52:14;6.32;;;3.20;;
65198;SDS011;52170;45.018;37.910;2022-10-04T17:55:16;8.15;;;3.60;;
65198;SDS011;52170;45.018;37.910;2022-10-04T17:57:52;10.13;;;3.87;;
65198;SDS011;52170;45.018;37.910;2022-10-04T18:00:27;10.57;;;3.70;;
65198;SDS011;52170;45.018;37.910;2022-10-04T18:03:34;9.85;;;3.63;;
65198;SDS011;52170;45.018;37.910;2022-10-04T18:06:18;12.07;;;4.20;;
65198;SDS011;52170;45.018;37.910;2022-10-04T18:09:07;15.63;;;4.32;;
65198;SDS011;52170;45.018;37.910;2022-10-04T18:12:04;10.35;;;4.28;;
65198;SDS011;52170;45.018;37.910;2022-10-04T18:17:01;11.20;;;5.00;;
65198;SDS011;52170;45.018;37.910;2022-10-04T18:19:34;14.88;;;5.32;;
65198;SDS011;52170;45.018;37.910;2022-10-04T18:24:41;14.20;;;7.55;;
65198;SDS011;52170;45.018;37.910;2022-10-04T18:27:19;15.77;;;7.10;;
65198;SDS011;52170;45.018;37.910;2022-10-04T18:32:39;21.63;;;7.28;;
65198;SDS011;52170;45.018;37.910;2022-10-04T18:35:19;16.40;;;7.32;;
65198;SDS011;52170;45.018;37.910;2022-10-04T18:37:47;18.90;;;7.05;;
65198;SDS011;52170;45.018;37.910;2022-10-04T18:42:57;14.65;;;5.95;;
65198;SDS011;52170;45.018;37.910;2022-10-04T18:45:31;13.90;;;5.38;;
65198;SDS011;52170;45.018;37.910;2022-10-04T18:47:59;11.68;;;5.20;;
65198;SDS011;52170;45.018;37.910;2022-10-04T18:50:38;12.02;;;5.00;;
65198;SDS011;52170;45.018;37.910;2022-10-04T18:56:24;11.73;;;4.70;;
65198;SDS011;52170;45.018;37.910;2022-10-04T19:04:41;14.70;;;4.10;;
65198;SDS011;52170;45.018;37.910;2022-10-04T19:07:16;12.13;;;3.80;;
65198;SDS011;52170;45.018;37.910;2022-10-04T19:10:10;15.83;;;5.80;;
65198;SDS011;52170;45.018;37.910;2022-10-04T19:15:41;14.65;;;5.82;;
65198;SDS011;52170;45.018;37.910;2022-10-04T19:18:16;15.10;;;5.50;;
65198;SDS011;52170;45.018;37.910;2022-10-04T19:26:40;20.27;;;6.65;;
65198;SDS011;52170;45.018;37.910;2022-10-04T19:32:26;12.70;;;4.82;;
65198;SDS011;52170;45.018;37.910;2022-10-04T19:37:58;7.95;;;3.83;;
65198;SDS011;52170;45.018;37.910;2022-10-04T19:43:24;5.88;;;3.08;;
65198;SDS011;52170;45.018;37.910;2022-10-04T19:46:29;9.50;;;2.75;;
65198;SDS011;52170;45.018;37.910;2022-10-04T19:48:59;11.77;;;2.77;;
65198;SDS011;52170;45.018;37.910;2022-10-04T19:51:37;6.60;;;2.90;;
65198;SDS011;52170;45.018;37.910;2022-10-04T19:54:10;7.47;;;2.88;;
65198;SDS011;52170;45.018;37.910;2022-10-04T19:56:41;9.13;;;3.00;;
65198;SDS011;52170;45.018;37.910;2022-10-04T19:59:14;5.65;;;2.72;;
65198;SDS011;52170;45.018;37.910;2022-10-04T20:01:43;10.93;;;3.03;;
65198;SDS011;52170;45.018;37.910;2022-10-04T20:04:14;7.00;;;3.20;;
65198;SDS011;52170;45.018;37.910;2022-10-04T20:07:00;10.63;;;2.97;;
65198;SDS011;52170;45.018;37.910;2022-10-04T20:09:30;6.45;;;2.90;;
65198;SDS011;52170;45.018;37.910;2022-10-04T20:12:07;7.35;;;3.10;;
65198;SDS011;52170;45.018;37.910;2022-10-04T20:17:53;8.65;;;3.13;;
65198;SDS011;52170;45.018;37.910;2022-10-04T20:23:04;11.05;;;3.22;;
65198;SDS011;52170;45.018;37.910;2022-10-04T20:28:28;8.10;;;3.28;;
65198;SDS011;52170;45.018;37.910;2022-10-04T20:31:09;7.68;;;3.00;;
65198;SDS011;52170;45.018;37.910;2022-10-04T20:36:55;11.30;;;3.90;;
65198;SDS011;52170;45.018;37.910;2022-10-04T20:40:04;13.65;;;3.92;;
65198;SDS011;52170;45.018;37.910;2022-10-04T20:42:10;11.97;;;4.10;;
65198;SDS011;52170;45.018;37.910;2022-10-04T20:44:50;12.25;;;4.10;;
65198;SDS011;52170;45.018;37.910;2022-10-04T20:50:25;9.73;;;3.70;;
65198;SDS011;52170;45.018;37.910;2022-10-04T20:52:53;7.72;;;3.35;;
65198;SDS011;52170;45.018;37.910;2022-10-04T20:55:26;8.27;;;2.92;;
65198;SDS011;52170;45.018;37.910;2022-10-04T20:58:01;6.20;;;2.30;;
65198;SDS011;52170;45.018;37.910;2022-10-04T21:00:55;7.00;;;2.40;;
65198;SDS011;52170;45.018;37.910;2022-10-04T21:03:24;4.53;;;2.50;;
65198;SDS011;52170;45.018;37.910;2022-10-04T21:06:00;11.10;;;2.47;;
65198;SDS011;52170;45.018;37.910;2022-10-04T21:08:31;6.93;;;2.30;;
65198;SDS011;52170;45.018;37.910;2022-10-04T21:11:03;7.37;;;2.60;;
65198;SDS011;52170;45.018;37.910;2022-10-04T21:16:08;5.33;;;2.27;;
65198;SDS011;52170;45.018;37.910;2022-10-04T21:18:34;7.28;;;2.67;;
65198;SDS011;52170;45.018;37.910;2022-10-04T21:21:00;4.10;;;2.03;;
65198;SDS011;52170;45.018;37.910;2022-10-04T21:23:27;6.03;;;2.13;;
65198;SDS011;52170;45.018;37.910;2022-10-04T21:26:20;6.47;;;2.33;;
65198;SDS011;52170;45.018;37.910;2022-10-04T21:28:47;7.03;;;2.60;;
65198;SDS011;52170;45.018;37.910;2022-10-04T21:31:21;12.30;;;3.00;;
65198;SDS011;52170;45.018;37.910;2022-10-04T21:33:47;6.88;;;2.80;;
65198;SDS011;52170;45.018;37.910;2022-10-04T21:36:13;4.75;;;2.42;;
65198;SDS011;52170;45.018;37.910;2022-10-04T21:38:39;5.77;;;2.60;;
65198;SDS011;52170;45.018;37.910;2022-10-04T21:41:05;6.90;;;2.45;;
65198;SDS011;52170;45.018;37.910;2022-10-04T21:43:31;5.68;;;2.45;;
65198;SDS011;52170;45.018;37.910;2022-10-04T21:45:57;8.90;;;2.40;;
65198;SDS011;52170;45.018;37.910;2022-10-04T21:48:24;5.38;;;2.50;;
65198;SDS011;52170;45.018;37.910;2022-10-04T21:50:50;10.38;;;2.70;;
65198;SDS011;52170;45.018;37.910;2022-10-04T21:53:17;8.38;;;2.70;;
65198;SDS011;52170;45.018;37.910;2022-10-04T21:55:44;8.02;;;2.80;;
65198;SDS011;52170;45.018;37.910;2022-10-04T21:58:10;8.52;;;3.00;;
65198;SDS011;52170;45.018;37.910;2022-10-04T22:00:36;6.78;;;3.10;;
65198;SDS011;52170;45.018;37.910;2022-10-04T22:03:02;10.52;;;3.20;;
65198;SDS011;52170;45.018;37.910;2022-10-04T22:05:28;7.82;;;3.35;;
65198;SDS011;52170;45.018;37.910;2022-10-04T22:07:54;10.43;;;3.60;;
65198;SDS011;52170;45.018;37.910;2022-10-04T22:10:20;10.13;;;3.20;;
65198;SDS011;52170;45.018;37.910;2022-10-04T22:12:45;12.38;;;3.50;;
65198;SDS011;52170;45.018;37.910;2022-10-04T22:15:11;6.50;;;3.30;;
65198;SDS011;52170;45.018;37.910;2022-10-04T22:17:37;6.90;;;3.30;;
65198;SDS011;52170;45.018;37.910;2022-10-04T22:20:03;7.57;;;3.27;;
65198;SDS011;52170;45.018;37.910;2022-10-04T22:22:30;10.07;;;3.47;;
65198;SDS011;52170;45.018;37.910;2022-10-04T22:24:57;9.18;;;3.55;;
65198;SDS011;52170;45.018;37.910;2022-10-04T22:27:24;12.32;;;3.60;;
65198;SDS011;52170;45.018;37.910;2022-10-04T22:29:53;7.97;;;3.30;;
65198;SDS011;52170;45.018;37.910;2022-10-04T22:32:23;7.97;;;3.20;;
65198;SDS011;52170;45.018;37.910;2022-10-04T22:34:51;6.95;;;3.40;;
65198;SDS011;52170;45.018;37.910;2022-10-04T22:37:24;8.10;;;3.20;;
65198;SDS011;52170;45.018;37.910;2022-10-04T22:39:50;11.37;;;3.73;;
65198;SDS011;52170;45.018;37.910;2022-10-04T22:42:17;9.00;;;3.30;;
65198;SDS011;52170;45.018;37.910;2022-10-04T22:44:42;7.75;;;3.53;;
65198;SDS011;52170;45.018;37.910;2022-10-04T22:47:12;9.40;;;3.70;;
65198;SDS011;52170;45.018;37.910;2022-10-04T22:49:43;5.70;;;3.10;;
65198;SDS011;52170;45.018;37.910;2022-10-04T22:52:30;8.98;;;3.53;;
65198;SDS011;52170;45.018;37.910;2022-10-04T22:54:56;10.70;;;3.45;;
65198;SDS011;52170;45.018;37.910;2022-10-04T22:57:25;13.27;;;4.23;;
65198;SDS011;52170;45.018;37.910;2022-10-04T22:59:51;9.55;;;3.90;;
65198;SDS011;52170;45.018;37.910;2022-10-04T23:02:24;13.43;;;4.68;;
65198;SDS011;52170;45.018;37.910;2022-10-04T23:04:55;9.85;;;4.10;;
65198;SDS011;52170;45.018;37.910;2022-10-04T23:07:42;10.45;;;4.07;;
65198;SDS011;52170;45.018;37.910;2022-10-04T23:10:09;10.88;;;3.97;;
65198;SDS011;52170;45.018;37.910;2022-10-04T23:12:36;7.43;;;4.10;;
65198;SDS011;52170;45.018;37.910;2022-10-04T23:15:02;11.02;;;3.83;;
65198;SDS011;52170;45.018;37.910;2022-10-04T23:17:32;8.13;;;3.67;;
65198;SDS011;52170;45.018;37.910;2022-10-04T23:20:04;7.30;;;3.70;;
65198;SDS011;52170;45.018;37.910;2022-10-04T23:22:34;7.60;;;3.90;;
65198;SDS011;52170;45.018;37.910;2022-10-04T23:25:00;10.00;;;3.75;;
65198;SDS011;52170;45.018;37.910;2022-10-04T23:27:27;6.60;;;3.55;;
65198;SDS011;52170;45.018;37.910;2022-10-04T23:30:02;7.50;;;3.60;;
65198;SDS011;52170;45.018;37.910;2022-10-04T23:32:29;9.10;;;3.70;;
65198;SDS011;52170;45.018;37.910;2022-10-04T23:34:56;8.05;;;3.70;;
65198;SDS011;52170;45.018;37.910;2022-10-04T23:37:24;7.97;;;3.60;;
65198;SDS011;52170;45.018;37.910;2022-10-04T23:39:55;10.40;;;3.60;;
65198;SDS011;52170;45.018;37.910;2022-10-04T23:42:22;11.88;;;3.80;;
65198;SDS011;52170;45.018;37.910;2022-10-04T23:44:54;9.23;;;3.75;;
65198;SDS011;52170;45.018;37.910;2022-10-04T23:47:22;6.85;;;3.33;;
65198;SDS011;52170;45.018;37.910;2022-10-04T23:49:54;10.80;;;3.63;;
65198;SDS011;52170;45.018;37.910;2022-10-04T23:52:21;6.10;;;3.13;;
65198;SDS011;52170;45.018;37.910;2022-10-04T23:54:56;6.65;;;3.47;;
65198;SDS011;52170;45.018;37.910;2022-10-04T23:57:23;8.25;;;3.30;;
65198;SDS011;52170;45.018;37.910;2022-10-04T23:59:51;7.13;;;3.38;;
